createdAt,value
2022-12-05T00:00:47.362Z,4.36
2022-12-05T00:02:50.191Z,4.32
2022-12-05T00:04:53.054Z,4.17
2022-12-05T00:06:57.168Z,4.07
2022-12-05T00:09:01.133Z,4.00
2022-12-05T00:11:04.088Z,3.94
2022-12-05T00:13:07.347Z,3.90
2022-12-05T00:15:12.494Z,3.93
2022-12-05T00:17:15.352Z,3.94
2022-12-05T00:19:18.214Z,3.95
2022-12-05T00:21:24.498Z,3.96
2022-12-05T00:23:28.536Z,3.93
2022-12-05T00:25:31.323Z,3.88
2022-12-05T00:27:34.395Z,3.85
2022-12-05T00:29:37.872Z,3.87
2022-12-05T00:31:41.106Z,3.92
2022-12-05T00:33:44.625Z,3.94
2022-12-05T00:35:47.410Z,3.95
2022-12-05T00:37:50.254Z,3.96
2022-12-05T00:39:54.583Z,3.98
2022-12-05T00:41:57.502Z,3.90
2022-12-05T00:44:02.045Z,3.83
2022-12-05T00:46:06.145Z,3.80
2022-12-05T00:48:08.915Z,3.87
2022-12-05T00:50:11.824Z,3.94
2022-12-05T00:52:14.605Z,3.93
2022-12-05T00:54:18.031Z,3.84
2022-12-05T00:56:23.913Z,3.88
2022-12-05T00:58:26.776Z,3.93
2022-12-05T01:00:29.534Z,3.93
2022-12-05T01:02:32.320Z,4.01
2022-12-05T01:04:35.144Z,4.08
2022-12-05T01:06:38.914Z,4.09
2022-12-05T01:08:41.758Z,4.10
2022-12-05T01:10:53.894Z,4.16
2022-12-05T01:12:59.072Z,4.14
2022-12-05T01:15:01.958Z,4.07
2022-12-05T01:17:04.817Z,4.09
2022-12-05T01:19:10.093Z,4.09
2022-12-05T01:21:13.264Z,4.14
2022-12-05T01:23:16.893Z,4.14
2022-12-05T01:25:19.631Z,4.15
2022-12-05T01:27:22.466Z,4.14
2022-12-05T01:29:27.067Z,4.18
2022-12-05T01:31:31.913Z,4.19
2022-12-05T01:33:35.112Z,4.14
2022-12-05T01:35:39.713Z,4.16
2022-12-05T01:37:42.532Z,4.19
2022-12-05T01:39:45.462Z,4.22
2022-12-05T01:41:50.121Z,4.25
2022-12-05T01:43:57.883Z,4.26
2022-12-05T01:46:02.023Z,4.23
2022-12-05T01:48:08.588Z,4.22
2022-12-05T01:50:12.948Z,4.26
2022-12-05T01:52:19.475Z,4.27
2022-12-05T01:54:23.766Z,4.21
2022-12-05T01:56:26.787Z,4.06
2022-12-05T01:58:33.765Z,4.05
2022-12-05T02:00:36.746Z,4.05
2022-12-05T02:02:45.349Z,4.05
2022-12-05T02:04:56.273Z,3.98
2022-12-05T02:06:59.067Z,3.94
2022-12-05T02:09:02.312Z,3.94
2022-12-05T02:11:08.086Z,3.97
2022-12-05T02:13:27.104Z,3.97
2022-12-05T02:15:42.855Z,4.02
2022-12-05T02:17:55.214Z,4.04
2022-12-05T02:20:08.971Z,3.98
2022-12-05T02:22:49.876Z,3.93
2022-12-05T02:25:13.003Z,3.95
2022-12-05T02:27:34.787Z,3.93
2022-12-05T02:29:58.640Z,3.88
2022-12-05T02:32:08.106Z,3.78
2022-12-05T02:34:19.583Z,3.74
2022-12-05T02:36:26.511Z,3.77
2022-12-05T02:38:34.249Z,3.86
2022-12-05T02:40:45.267Z,3.91
2022-12-05T02:42:54.732Z,3.88
2022-12-05T02:45:04.041Z,3.86
2022-12-05T02:47:09.743Z,3.86
2022-12-05T02:49:17.692Z,3.92
2022-12-05T02:51:23.355Z,3.98
2022-12-05T02:53:28.052Z,4.00
2022-12-05T02:55:32.056Z,4.03
2022-12-05T02:57:35.943Z,4.08
2022-12-05T02:59:39.075Z,4.09
2022-12-05T03:01:46.528Z,4.14
2022-12-05T03:03:49.566Z,4.18
2022-12-05T03:05:58.335Z,4.21
2022-12-05T03:08:04.675Z,4.17
2022-12-05T03:10:09.363Z,4.17
2022-12-05T03:12:18.372Z,4.16
2022-12-05T03:14:24.381Z,4.22
2022-12-05T03:16:32.556Z,4.22
2022-12-05T03:18:40.109Z,4.25
2022-12-05T03:20:45.827Z,4.17
2022-12-05T03:22:55.579Z,4.14
2022-12-05T03:24:59.269Z,4.14
2022-12-05T03:27:08.932Z,4.13
2022-12-05T03:29:23.625Z,4.13
2022-12-05T03:31:34.624Z,4.13
2022-12-05T03:33:45.154Z,4.14
2022-12-05T03:35:58.868Z,4.17
2022-12-05T03:38:08.729Z,4.22
2022-12-05T03:40:20.281Z,4.20
2022-12-05T03:42:32.980Z,4.22
2022-12-05T03:44:43.504Z,4.25
2022-12-05T03:46:54.381Z,4.30
2022-12-05T03:49:04.852Z,4.15
2022-12-05T03:51:11.583Z,4.11
2022-12-05T03:53:20.459Z,4.14
2022-12-05T03:55:28.958Z,4.14
2022-12-05T03:57:37.551Z,4.16
2022-12-05T03:59:45.574Z,4.17
2022-12-05T04:01:49.812Z,4.19
2022-12-05T04:03:58.834Z,4.23
2022-12-05T04:06:05.051Z,4.12
2022-12-05T04:08:13.767Z,4.15
2022-12-05T04:10:21.243Z,4.16
2022-12-05T04:12:28.263Z,4.21
2022-12-05T04:14:36.007Z,4.19
2022-12-05T04:17:00.811Z,4.23
2022-12-05T04:19:09.752Z,4.27
2022-12-05T04:21:32.506Z,4.36
2022-12-05T04:23:35.864Z,4.38
2022-12-05T04:25:46.929Z,4.33
2022-12-05T04:27:55.528Z,4.36
2022-12-05T04:30:04.551Z,4.37
2022-12-05T04:32:11.945Z,4.37
2022-12-05T04:34:16.557Z,4.38
2022-12-05T04:36:23.916Z,4.43
2022-12-05T04:38:31.384Z,4.43
2022-12-05T04:40:38.527Z,4.40
2022-12-05T04:42:43.800Z,4.39
2022-12-05T04:44:50.709Z,4.40
2022-12-05T04:46:56.074Z,4.41
2022-12-05T04:49:02.933Z,4.42
2022-12-05T04:51:08.829Z,4.41
2022-12-05T04:53:15.353Z,4.44
2022-12-05T04:55:25.713Z,4.46
2022-12-05T04:57:32.037Z,4.44
2022-12-05T04:59:35.519Z,4.45
2022-12-05T05:01:43.209Z,4.47
2022-12-05T05:03:51.202Z,4.47
2022-12-05T05:05:56.897Z,4.38
2022-12-05T05:07:59.657Z,4.38
2022-12-05T05:10:03.869Z,4.39
2022-12-05T05:12:07.278Z,4.35
2022-12-05T05:14:10.238Z,4.36
2022-12-05T05:16:18.039Z,4.42
2022-12-05T05:18:20.984Z,4.42
2022-12-05T05:20:27.216Z,4.76
2022-12-05T05:22:30.163Z,5.41
2022-12-05T05:24:32.914Z,5.30
2022-12-05T05:26:39.302Z,5.18
2022-12-05T05:28:42.155Z,5.03
2022-12-05T05:30:45.150Z,4.89
2022-12-05T05:32:48.531Z,4.79
2022-12-05T05:34:51.294Z,4.73
2022-12-05T05:36:54.052Z,4.70
2022-12-05T05:38:58.508Z,4.71
2022-12-05T05:41:01.315Z,4.68
2022-12-05T05:43:06.010Z,4.65
2022-12-05T05:45:10.186Z,4.61
2022-12-05T05:47:12.972Z,4.59
2022-12-05T05:49:15.808Z,4.60
2022-12-05T05:51:19.776Z,4.58
2022-12-05T05:53:22.588Z,4.57
2022-12-05T05:55:25.420Z,4.58
2022-12-05T05:57:28.314Z,4.63
2022-12-05T05:59:32.684Z,4.60
2022-12-05T06:01:35.491Z,4.57
2022-12-05T06:03:39.051Z,4.62
2022-12-05T06:05:42.006Z,4.64
2022-12-05T06:07:44.795Z,4.63
2022-12-05T06:09:47.586Z,4.59
2022-12-05T06:11:50.363Z,4.55
2022-12-05T06:13:53.091Z,4.55
2022-12-05T06:15:57.215Z,4.58
2022-12-05T06:18:00.024Z,4.58
2022-12-05T06:20:02.845Z,4.61
2022-12-05T06:22:05.660Z,4.66
2022-12-05T06:24:09.560Z,4.68
2022-12-05T06:26:14.600Z,4.63
2022-12-05T06:28:17.366Z,4.51
2022-12-05T06:30:20.232Z,4.53
2022-12-05T06:32:24.447Z,4.54
2022-12-05T06:34:27.243Z,4.57
2022-12-05T06:36:30.673Z,4.59
2022-12-05T06:38:35.986Z,4.60
2022-12-05T06:40:43.117Z,4.49
2022-12-05T06:42:45.818Z,4.42
2022-12-05T06:44:48.597Z,4.37
2022-12-05T06:46:51.411Z,4.41
2022-12-05T06:48:56.494Z,4.41
2022-12-05T06:50:59.338Z,4.42
2022-12-05T06:53:02.146Z,4.41
2022-12-05T06:55:05.780Z,4.49
2022-12-05T06:57:09.602Z,4.44
2022-12-05T06:59:12.393Z,4.44
2022-12-05T07:01:34.750Z,4.46
2022-12-05T07:03:37.878Z,4.53
2022-12-05T07:05:41.985Z,4.52
2022-12-05T07:07:44.877Z,4.57
2022-12-05T07:09:48.479Z,4.56
2022-12-05T07:11:52.316Z,4.57
2022-12-05T07:13:55.225Z,4.52
2022-12-05T07:15:59.003Z,4.51
2022-12-05T07:18:01.992Z,4.50
2022-12-05T07:20:06.088Z,4.52
2022-12-05T07:22:15.407Z,4.50
2022-12-05T07:24:18.888Z,4.43
2022-12-05T07:26:23.188Z,4.44
2022-12-05T07:28:26.126Z,4.42
2022-12-05T07:30:28.951Z,4.33
2022-12-05T07:32:33.232Z,4.28
2022-12-05T07:34:36.141Z,4.24
2022-12-05T07:36:38.982Z,4.30
2022-12-05T07:38:43.861Z,4.39
2022-12-05T07:40:46.530Z,4.34
2022-12-05T07:42:49.563Z,4.33
2022-12-05T07:44:52.357Z,4.41
2022-12-05T07:46:55.101Z,4.51
2022-12-05T07:48:57.963Z,4.49
2022-12-05T07:51:02.411Z,4.53
2022-12-05T07:53:05.344Z,4.54
2022-12-05T07:55:10.255Z,4.60
2022-12-05T07:57:12.864Z,4.57
2022-12-05T07:59:15.749Z,4.59
2022-12-05T08:01:20.709Z,4.65
2022-12-05T08:03:23.633Z,4.71
2022-12-05T08:05:26.473Z,4.81
2022-12-05T08:07:29.345Z,4.81
2022-12-05T08:09:32.253Z,4.84
2022-12-05T08:11:36.415Z,4.86
2022-12-05T08:13:39.374Z,4.84
2022-12-05T08:15:42.089Z,4.86
2022-12-05T08:17:44.873Z,4.87
2022-12-05T08:19:47.679Z,4.92
2022-12-05T08:21:52.414Z,4.88
2022-12-05T08:23:55.912Z,4.89
2022-12-05T08:26:02.846Z,4.92
2022-12-05T08:28:07.092Z,4.93
2022-12-05T08:30:10.322Z,4.88
2022-12-05T08:32:13.135Z,4.92
2022-12-05T08:34:17.472Z,4.95
2022-12-05T08:36:20.915Z,4.95
2022-12-05T08:38:23.906Z,4.99
2022-12-05T08:40:27.034Z,5.02
2022-12-05T08:42:29.755Z,5.03
2022-12-05T08:44:33.961Z,5.02
2022-12-05T08:46:38.904Z,5.03
2022-12-05T08:48:41.797Z,5.13
2022-12-05T08:50:44.654Z,5.14
2022-12-05T08:52:49.591Z,5.15
2022-12-05T08:54:52.828Z,5.13
2022-12-05T08:56:55.637Z,5.14
2022-12-05T08:59:04.810Z,5.15
2022-12-05T09:01:12.904Z,5.24
2022-12-05T09:03:15.766Z,5.20
2022-12-05T09:05:28.438Z,5.16
2022-12-05T09:07:32.209Z,5.11
2022-12-05T09:09:35.444Z,5.19
2022-12-05T09:11:44.015Z,5.19
2022-12-05T09:13:47.988Z,5.17
2022-12-05T09:15:50.834Z,5.11
2022-12-05T09:17:55.036Z,5.10
2022-12-05T09:19:58.296Z,5.14
2022-12-05T09:22:01.215Z,5.22
2022-12-05T09:24:04.239Z,5.20
2022-12-05T09:26:08.476Z,5.23
2022-12-05T09:28:11.273Z,5.21
2022-12-05T09:30:15.406Z,5.23
2022-12-05T09:32:18.351Z,5.22
2022-12-05T09:34:24.696Z,5.23
2022-12-05T09:36:29.955Z,5.19
2022-12-05T09:38:32.860Z,5.19
2022-12-05T09:40:38.379Z,5.35
2022-12-05T09:42:52.473Z,5.27
2022-12-05T09:45:06.888Z,5.28
2022-12-05T09:47:16.025Z,5.28
2022-12-05T09:49:18.975Z,5.28
2022-12-05T09:51:23.148Z,5.25
2022-12-05T09:53:30.606Z,5.23
2022-12-05T09:55:45.281Z,5.27
2022-12-05T09:57:52.159Z,5.34
2022-12-05T09:59:55.326Z,5.29
2022-12-05T10:02:07.173Z,5.35
2022-12-05T10:04:38.991Z,5.32
2022-12-05T10:06:51.358Z,5.36
2022-12-05T10:09:10.199Z,5.34
2022-12-05T10:11:19.160Z,5.35
2022-12-05T10:13:36.204Z,5.36
2022-12-05T10:15:45.758Z,5.36
2022-12-05T10:17:54.462Z,5.40
2022-12-05T10:20:00.464Z,5.38
2022-12-05T10:22:16.049Z,5.37
2022-12-05T10:24:29.705Z,5.47
2022-12-05T10:26:39.345Z,5.49
2022-12-05T10:28:51.596Z,5.50
2022-12-05T10:30:57.695Z,5.50
2022-12-05T10:33:07.803Z,5.51
2022-12-05T10:35:17.842Z,5.50
2022-12-05T10:37:24.328Z,5.63
2022-12-05T10:39:28.160Z,5.53
2022-12-05T10:41:31.132Z,5.50
2022-12-05T10:43:37.112Z,5.51
2022-12-05T10:45:44.652Z,5.53
2022-12-05T10:47:48.409Z,5.59
2022-12-05T10:49:51.647Z,5.57
2022-12-05T10:51:54.847Z,5.60
2022-12-05T10:53:59.691Z,5.67
2022-12-05T10:58:28.602Z,5.72
2022-12-05T11:00:31.611Z,5.77
2022-12-05T11:02:36.765Z,5.76
2022-12-05T11:04:44.615Z,5.78
2022-12-05T11:06:52.481Z,5.76
2022-12-05T11:09:06.448Z,5.92
2022-12-05T11:11:22.522Z,5.78
2022-12-05T11:13:27.294Z,5.76
2022-12-05T11:15:31.793Z,5.74
2022-12-05T11:17:36.819Z,5.76
2022-12-05T11:19:39.974Z,5.79
2022-12-05T11:21:43.832Z,5.79
2022-12-05T11:23:47.069Z,5.77
2022-12-05T11:25:50.130Z,5.78
2022-12-05T11:27:59.598Z,5.85
2022-12-05T11:30:16.119Z,5.82
2022-12-05T11:32:20.820Z,5.72
2022-12-05T11:34:27.208Z,5.74
2022-12-05T11:36:38.131Z,5.73
2022-12-05T11:38:42.227Z,5.69
2022-12-05T11:40:53.072Z,5.72
2022-12-05T11:43:14.496Z,5.77
2022-12-05T11:45:30.661Z,5.80
2022-12-05T11:47:55.260Z,5.84
2022-12-05T11:50:20.001Z,5.86
2022-12-05T11:52:40.691Z,5.83
2022-12-05T11:55:10.982Z,5.84
2022-12-05T11:57:23.338Z,5.92
2022-12-05T11:59:59.664Z,5.97
2022-12-05T12:02:17.299Z,5.89
2022-12-05T12:04:42.535Z,5.95
2022-12-05T12:06:59.061Z,5.91
2022-12-05T12:09:22.616Z,5.95
2022-12-05T12:11:35.479Z,5.80
2022-12-05T12:13:52.086Z,5.71
2022-12-05T12:16:08.767Z,5.66
2022-12-05T12:18:23.236Z,5.70
2022-12-05T12:20:40.653Z,5.67
2022-12-05T12:23:00.191Z,5.69
2022-12-05T12:25:21.622Z,5.73
2022-12-05T12:27:33.759Z,5.78
2022-12-05T12:29:53.210Z,5.79
2022-12-05T12:32:12.933Z,5.75
2022-12-05T12:34:35.467Z,5.85
2022-12-05T12:36:46.506Z,5.91
2022-12-05T12:39:03.956Z,5.81
2022-12-05T12:41:15.437Z,5.82
2022-12-05T12:43:53.087Z,5.90
2022-12-05T12:46:11.470Z,6.00
2022-12-05T12:48:31.046Z,6.00
2022-12-05T12:50:41.840Z,6.08
2022-12-05T12:53:20.751Z,6.06
2022-12-05T12:55:30.030Z,6.17
2022-12-05T12:57:58.907Z,6.25
2022-12-05T13:00:12.079Z,6.17
2022-12-05T13:02:22.098Z,6.06
2022-12-05T13:04:33.325Z,6.07
2022-12-05T13:06:43.295Z,6.09
2022-12-05T13:08:51.345Z,6.15
2022-12-05T13:10:55.132Z,6.17
2022-12-05T13:13:00.155Z,6.23
2022-12-05T13:15:09.019Z,6.26
2022-12-05T13:17:18.671Z,6.19
2022-12-05T13:19:37.169Z,6.28
2022-12-05T13:21:40.281Z,6.29
2022-12-05T13:23:48.150Z,6.24
2022-12-05T13:25:52.551Z,6.20
2022-12-05T13:27:58.310Z,6.31
2022-12-05T13:30:03.833Z,6.11
2022-12-05T13:32:26.001Z,6.12
2022-12-05T13:34:47.818Z,6.11
2022-12-05T13:37:08.266Z,6.13
2022-12-05T13:39:39.670Z,6.14
2022-12-05T13:42:02.307Z,5.94
2022-12-05T13:44:12.384Z,5.97
2022-12-05T13:46:27.168Z,6.04
2022-12-05T13:48:33.923Z,6.03
2022-12-05T13:50:48.953Z,6.10
2022-12-05T13:52:55.915Z,6.07
2022-12-05T13:55:02.476Z,5.99
2022-12-05T13:57:05.928Z,6.04
2022-12-05T13:59:09.509Z,6.06
2022-12-05T14:01:46.619Z,6.10
2022-12-05T14:03:58.262Z,5.99
2022-12-05T14:06:02.469Z,6.01
2022-12-05T14:08:47.394Z,6.04
2022-12-05T14:11:11.634Z,5.99
2022-12-05T14:13:43.299Z,5.99
2022-12-05T14:15:48.856Z,5.88
2022-12-05T14:17:58.278Z,5.81
2022-12-05T14:20:21.720Z,5.66
2022-12-05T14:22:53.602Z,5.66
2022-12-05T14:25:05.075Z,5.63
2022-12-05T14:27:16.870Z,5.61
2022-12-05T14:29:36.379Z,5.64
2022-12-05T14:31:51.253Z,5.68
2022-12-05T14:34:06.964Z,5.66
2022-12-05T14:36:17.373Z,5.68
2022-12-05T14:38:28.752Z,5.70
2022-12-05T14:40:34.568Z,5.59
2022-12-05T14:42:41.628Z,5.70
2022-12-05T14:44:48.029Z,5.78
2022-12-05T14:46:50.939Z,5.75
2022-12-05T14:48:55.959Z,5.68
2022-12-05T14:50:59.756Z,5.66
2022-12-05T14:53:39.036Z,5.76
2022-12-05T14:55:42.356Z,5.73
2022-12-05T14:57:48.921Z,5.68
2022-12-05T14:59:56.333Z,5.65
2022-12-05T15:02:02.632Z,5.60
2022-12-05T15:04:18.618Z,5.53
2022-12-05T15:06:25.805Z,5.53
2022-12-05T15:08:33.835Z,5.50
2022-12-05T15:10:40.360Z,5.44
2022-12-05T15:12:47.974Z,5.42
2022-12-05T15:15:02.831Z,5.62
2022-12-05T15:17:07.226Z,5.65
2022-12-05T15:19:16.513Z,5.70
2022-12-05T15:21:23.707Z,5.68
2022-12-05T15:23:43.172Z,5.62
2022-12-05T15:25:57.284Z,5.62
2022-12-05T15:28:05.364Z,5.55
2022-12-05T15:30:17.200Z,5.70
2022-12-05T15:32:25.316Z,5.65
2022-12-05T15:34:33.091Z,5.64
2022-12-05T15:36:38.041Z,5.65
2022-12-05T15:38:40.892Z,5.67
2022-12-05T15:40:49.124Z,5.75
2022-12-05T15:42:53.594Z,5.78
2022-12-05T15:45:12.912Z,5.71
2022-12-05T15:47:21.953Z,5.74
2022-12-05T15:49:27.086Z,5.73
2022-12-05T15:51:34.948Z,5.75
2022-12-05T15:53:44.004Z,5.79
2022-12-05T15:55:51.957Z,5.79
2022-12-05T15:58:01.373Z,5.80
2022-12-05T16:00:07.172Z,5.67
2022-12-05T16:02:20.694Z,5.63
2022-12-05T16:04:30.079Z,5.67
2022-12-05T16:06:36.703Z,5.69
2022-12-05T16:08:45.463Z,5.74
2022-12-05T16:10:49.892Z,5.73
2022-12-05T16:12:53.846Z,5.75
2022-12-05T16:15:01.594Z,5.75
2022-12-05T16:17:06.435Z,5.76
2022-12-05T16:19:16.873Z,5.80
2022-12-05T16:21:36.039Z,5.84
2022-12-05T16:23:43.941Z,5.82
2022-12-05T16:25:46.745Z,5.82
2022-12-05T16:28:00.037Z,5.82
2022-12-05T16:30:17.816Z,5.82
2022-12-05T16:32:25.373Z,5.83
2022-12-05T16:34:29.902Z,5.82
2022-12-05T16:36:33.249Z,5.80
2022-12-05T16:38:37.818Z,5.79
2022-12-05T16:40:42.310Z,5.81
2022-12-05T16:42:45.153Z,5.80
2022-12-05T16:45:03.508Z,5.81
2022-12-05T16:47:23.354Z,5.84
2022-12-05T16:49:34.524Z,5.84
2022-12-05T16:51:42.009Z,5.81
2022-12-05T16:53:47.258Z,5.85
2022-12-05T16:55:50.850Z,5.83
2022-12-05T16:57:53.676Z,5.81
2022-12-05T17:00:01.358Z,5.81
2022-12-05T17:02:05.721Z,5.81
2022-12-05T17:04:12.457Z,5.85
2022-12-05T17:06:15.869Z,5.86
2022-12-05T17:08:18.968Z,5.83
2022-12-05T17:10:21.835Z,5.89
2022-12-05T17:12:25.884Z,5.89
2022-12-05T17:14:28.659Z,5.89
2022-12-05T17:16:32.899Z,5.88
2022-12-05T17:18:35.815Z,5.86
2022-12-05T17:20:41.156Z,5.87
2022-12-05T17:22:44.171Z,5.84
2022-12-05T17:24:46.979Z,5.77
2022-12-05T17:26:49.846Z,5.81
2022-12-05T17:28:53.093Z,5.83
2022-12-05T17:30:56.017Z,5.83
2022-12-05T17:33:00.341Z,5.83
2022-12-05T17:35:06.744Z,5.87
2022-12-05T17:37:09.834Z,5.91
2022-12-05T17:39:12.611Z,5.88
2022-12-05T17:41:17.415Z,5.84
2022-12-05T17:43:24.967Z,5.83
2022-12-05T17:45:28.181Z,5.84
2022-12-05T17:47:31.450Z,5.87
2022-12-05T17:49:35.657Z,5.90
2022-12-05T17:51:58.536Z,5.91
2022-12-05T17:54:01.352Z,5.92
2022-12-05T17:56:04.558Z,5.94
2022-12-05T17:58:07.448Z,5.99
2022-12-05T18:00:11.801Z,6.01
2022-12-05T18:02:15.474Z,5.99
2022-12-05T18:04:22.878Z,6.02
2022-12-05T18:06:28.782Z,6.04
2022-12-05T18:08:31.594Z,6.04
2022-12-05T18:10:34.440Z,6.04
2022-12-05T18:12:42.176Z,6.01
2022-12-05T18:14:44.974Z,6.00
2022-12-05T18:16:49.672Z,6.00
2022-12-05T18:18:52.555Z,6.01
2022-12-05T18:20:55.347Z,6.03
2022-12-05T18:23:02.622Z,6.04
2022-12-05T18:25:06.069Z,6.01
2022-12-05T18:27:08.923Z,6.03
2022-12-05T18:29:11.725Z,6.05
2022-12-05T18:31:17.135Z,5.93
2022-12-05T18:33:19.898Z,5.94
2022-12-05T18:35:40.543Z,5.98
2022-12-05T18:37:43.659Z,6.00
2022-12-05T18:39:47.881Z,6.00
2022-12-05T18:41:50.695Z,6.00
2022-12-05T18:43:53.622Z,5.97
2022-12-05T18:45:57.895Z,5.98
2022-12-05T18:48:22.990Z,5.98
2022-12-05T18:50:23.646Z,5.93
2022-12-05T18:52:27.252Z,5.94
2022-12-05T18:54:30.054Z,5.94
2022-12-05T18:56:36.735Z,5.99
2022-12-05T18:58:39.602Z,5.97
2022-12-05T19:00:42.546Z,5.97
2022-12-05T19:02:45.423Z,5.96
2022-12-05T19:04:48.376Z,5.96
2022-12-05T19:06:52.844Z,5.95
2022-12-05T19:08:56.668Z,5.93
2022-12-05T19:11:05.327Z,5.93
2022-12-05T19:13:10.452Z,5.92
2022-12-05T19:15:13.418Z,5.91
2022-12-05T19:17:16.284Z,5.91
2022-12-05T19:19:20.102Z,5.95
2022-12-05T19:21:23.355Z,5.95
2022-12-05T19:23:26.570Z,5.95
2022-12-05T19:25:29.730Z,5.95
2022-12-05T19:27:32.505Z,5.98
2022-12-05T19:29:36.724Z,5.98
2022-12-05T19:31:39.800Z,5.95
2022-12-05T19:33:44.216Z,5.93
2022-12-05T19:35:47.022Z,5.93
2022-12-05T19:37:49.869Z,5.96
2022-12-05T19:39:52.636Z,5.96
2022-12-05T19:41:57.491Z,5.99
2022-12-05T19:44:00.378Z,5.92
2022-12-05T19:46:07.207Z,5.95
2022-12-05T19:48:10.053Z,6.00
2022-12-05T19:50:12.905Z,6.03
2022-12-05T19:52:17.771Z,6.04
2022-12-05T19:54:21.976Z,5.92
2022-12-05T19:56:27.404Z,5.94
2022-12-05T19:58:32.056Z,5.97
2022-12-05T20:00:34.836Z,6.00
2022-12-05T20:02:40.424Z,6.04
2022-12-05T20:04:43.443Z,6.03
2022-12-05T20:06:48.312Z,6.03
2022-12-05T20:08:52.460Z,6.04
2022-12-05T20:10:55.284Z,6.03
2022-12-05T20:12:58.107Z,6.05
2022-12-05T20:15:00.983Z,6.05
2022-12-05T20:17:05.360Z,6.06
2022-12-05T20:19:09.762Z,6.04
2022-12-05T20:21:15.524Z,6.02
2022-12-05T20:23:18.292Z,6.03
2022-12-05T20:25:21.170Z,6.05
2022-12-05T20:27:24.764Z,6.01
2022-12-05T20:29:27.709Z,6.03
2022-12-05T20:31:32.460Z,6.09
2022-12-05T20:33:36.073Z,6.00
2022-12-05T20:35:40.211Z,5.99
2022-12-05T20:37:42.969Z,5.99
2022-12-05T20:39:45.781Z,5.97
2022-12-05T20:41:50.353Z,6.02
2022-12-05T20:43:56.164Z,5.99
2022-12-05T20:46:05.495Z,6.00
2022-12-05T20:48:08.420Z,5.96
2022-12-05T20:50:12.157Z,5.95
2022-12-05T20:52:16.312Z,5.94
2022-12-05T20:54:19.100Z,5.93
2022-12-05T20:56:25.107Z,5.94
2022-12-05T20:58:27.881Z,5.94
2022-12-05T21:00:30.653Z,5.93
2022-12-05T21:02:33.617Z,5.94
2022-12-05T21:04:40.479Z,5.94
2022-12-05T21:06:45.804Z,5.92
2022-12-05T21:08:51.070Z,5.92
2022-12-05T21:10:54.172Z,5.92
2022-12-05T21:12:56.927Z,5.92
2022-12-05T21:14:59.738Z,5.94
2022-12-05T21:17:02.604Z,5.92
2022-12-05T21:19:05.437Z,5.93
2022-12-05T21:21:10.163Z,5.94
2022-12-05T21:23:12.934Z,5.91
2022-12-05T21:25:17.219Z,5.90
2022-12-05T21:27:20.586Z,5.88
2022-12-05T21:29:23.397Z,5.88
2022-12-05T21:31:28.371Z,5.83
2022-12-05T21:33:31.318Z,5.84
2022-12-05T21:35:34.160Z,5.84
2022-12-05T21:37:37.154Z,5.86
2022-12-05T21:39:39.989Z,5.85
2022-12-05T21:41:44.147Z,5.87
2022-12-05T21:43:52.465Z,5.83
2022-12-05T21:45:57.499Z,5.83
2022-12-05T21:48:00.388Z,5.83
2022-12-05T21:50:03.216Z,5.85
2022-12-05T21:52:06.024Z,5.85
2022-12-05T21:54:09.053Z,5.85
2022-12-05T21:56:15.493Z,5.82
2022-12-05T21:58:19.641Z,5.85
2022-12-05T22:00:22.652Z,5.80
2022-12-05T22:02:25.568Z,5.84
2022-12-05T22:04:28.383Z,5.85
2022-12-05T22:06:33.735Z,5.86
2022-12-05T22:08:38.181Z,5.87
2022-12-05T22:10:40.919Z,5.87
2022-12-05T22:12:43.721Z,5.85
2022-12-05T22:14:48.029Z,5.86
2022-12-05T22:16:50.809Z,5.86
2022-12-05T22:18:53.621Z,5.87
2022-12-05T22:20:57.743Z,5.88
2022-12-05T22:23:00.478Z,6.00
2022-12-05T22:25:04.183Z,5.90
2022-12-05T22:27:07.016Z,5.86
2022-12-05T22:29:09.969Z,5.85
2022-12-05T22:31:15.796Z,5.84
2022-12-05T22:33:18.640Z,5.81
2022-12-05T22:35:21.428Z,5.78
2022-12-05T22:37:24.196Z,5.77
2022-12-05T22:39:27.081Z,5.80
2022-12-05T22:41:29.940Z,5.82
2022-12-05T22:43:33.901Z,5.87
2022-12-05T22:45:36.742Z,5.86
2022-12-05T22:47:40.800Z,5.85
2022-12-05T22:49:43.640Z,5.83
2022-12-05T22:51:46.420Z,5.82
2022-12-05T22:53:51.604Z,5.86
2022-12-05T22:55:55.056Z,5.83
2022-12-05T22:57:57.863Z,5.81
2022-12-05T23:00:02.053Z,5.86
2022-12-05T23:02:05.018Z,5.85
2022-12-05T23:04:11.802Z,5.88
2022-12-05T23:06:16.475Z,5.90
2022-12-05T23:08:19.288Z,5.87
2022-12-05T23:10:22.290Z,5.87
2022-12-05T23:12:25.116Z,5.86
2022-12-05T23:14:27.895Z,5.85
2022-12-05T23:16:32.740Z,5.87
2022-12-05T23:18:46.432Z,5.80
2022-12-05T23:20:50.693Z,5.85
2022-12-05T23:22:53.454Z,5.85
2022-12-05T23:24:56.250Z,5.85
2022-12-05T23:26:59.064Z,5.85
2022-12-05T23:29:02.157Z,5.86
2022-12-05T23:31:05.421Z,5.84
2022-12-05T23:33:08.232Z,5.88
2022-12-05T23:35:11.693Z,5.88
2022-12-05T23:37:17.215Z,5.90
2022-12-05T23:39:20.047Z,5.88
2022-12-05T23:41:24.124Z,5.89
2022-12-05T23:43:27.008Z,5.89
2022-12-05T23:45:29.792Z,5.88
2022-12-05T23:47:32.533Z,5.97
2022-12-05T23:49:35.272Z,5.94
2022-12-05T23:51:40.148Z,5.93
2022-12-05T23:53:44.851Z,5.90
2022-12-05T23:55:47.654Z,5.83
2022-12-05T23:57:50.419Z,5.83
2022-12-05T23:59:53.156Z,5.85
